Time;durP1;ratioP1;P1;durP2;ratioP2;P2;SDS_P1;SDS_P2;PMS_P1;PMS_P2;Temp;Humidity;BMP_temperature;BMP_pressure;BME280_temperature;BME280_humidity;BME280_pressure;Samples;Min_cycle;Max_cycle;Signal;HPM_P1;HPM_P2
2021/06/17 04:14:08;;;;;;;;;9.00;8.25;;;;;23.58;66.33;100719.75;5100705;23;45341;-70
2021/06/17 04:16:36;;;;;;;;;12.75;10.00;;;;;23.55;66.96;100697.75;4985460;28;45487;-69
2021/06/17 04:19:02;;;;;;;;;11.50;8.25;;;;;23.48;66.40;100694.75;4980465;28;45290;-69
2021/06/17 04:21:28;;;;;;;;;12.00;10.25;;;;;23.38;66.30;100706.25;4983767;28;45380;-71
2021/06/17 04:23:57;;;;;;;;;9.50;9.00;;;;;23.38;66.07;100713.47;4980389;28;45165;-70
2021/06/17 04:26:24;;;;;;;;;8.75;8.00;;;;;23.38;66.10;100721.53;4969168;28;47055;-70
2021/06/17 04:28:53;;;;;;;;;8.00;6.75;;;;;23.44;65.88;100730.84;4980652;28;46188;-67
2021/06/17 04:31:19;;;;;;;;;10.75;10.25;;;;;23.47;66.95;100738.63;4982067;28;45471;-67
2021/06/17 04:33:47;;;;;;;;;10.00;9.25;;;;;23.51;66.42;100732.03;4979768;28;45360;-69
2021/06/17 04:36:12;;;;;;;;;9.25;8.50;;;;;23.54;66.68;100722.84;4977256;28;45533;-68
2021/06/17 04:38:38;;;;;;;;;9.00;9.00;;;;;23.57;65.34;100731.50;4978391;28;47488;-68
2021/06/17 04:41:06;;;;;;;;;8.25;7.50;;;;;23.64;65.43;100733.63;4980570;28;45459;-69
2021/06/17 04:43:34;;;;;;;;;12.75;9.75;;;;;23.68;65.54;100724.34;4981701;28;45456;-69
2021/06/17 04:45:59;;;;;;;;;11.00;8.00;;;;;23.72;65.29;100733.78;4977109;28;45641;-69
2021/06/17 04:48:27;;;;;;;;;9.25;8.00;;;;;23.77;65.76;100706.53;4982325;28;45711;-66
2021/06/17 04:50:54;;;;;;;;;10.00;9.50;;;;;23.77;66.48;100717.28;4980024;28;45559;-67
2021/06/17 04:53:20;;;;;;;;;8.25;8.25;;;;;23.74;64.81;100739.00;4981595;28;45266;-67
2021/06/17 04:55:56;;;;;;;;;9.25;7.75;;;;;23.76;65.62;100726.28;4981713;28;45482;-66
2021/06/17 04:58:23;;;;;;;;;8.50;8.25;;;;;23.80;65.72;100717.84;4978634;28;46190;-66
2021/06/17 05:00:49;;;;;;;;;9.25;8.75;;;;;23.85;65.49;100730.00;4981222;28;45711;-64
2021/06/17 05:03:16;;;;;;;;;8.25;8.00;;;;;23.89;65.22;100728.72;4981723;28;45427;-64
2021/06/17 05:05:42;;;;;;;;;7.50;7.50;;;;;23.94;65.74;100729.16;4979719;28;45332;-64
2021/06/17 05:10:50;;;;;;;;;11.00;9.25;;;;;24.00;65.34;100735.81;4980702;28;45356;-64
2021/06/17 05:13:26;;;;;;;;;10.00;9.00;;;;;24.02;66.05;100740.06;4981080;28;45282;-66
2021/06/17 05:15:53;;;;;;;;;11.25;10.00;;;;;24.03;66.44;100728.31;4981408;28;45518;-66
2021/06/17 05:18:19;;;;;;;;;8.25;7.00;;;;;24.04;64.95;100719.28;4980468;28;45620;-66
2021/06/17 05:20:45;;;;;;;;;14.00;11.25;;;;;24.07;64.95;100717.31;4981459;28;45747;-66
2021/06/17 05:23:14;;;;;;;;;11.50;11.50;;;;;24.12;65.89;100726.66;4984739;28;45245;-66
2021/06/17 05:25:39;;;;;;;;;8.50;6.50;;;;;24.14;64.40;100734.56;4979434;28;45708;-66
2021/06/17 05:28:05;;;;;;;;;10.50;7.75;;;;;24.16;64.31;100738.78;4974132;28;45517;-66
2021/06/17 05:30:30;;;;;;;;;10.50;9.25;;;;;24.20;64.08;100742.03;4979496;28;45365;-66
2021/06/17 05:32:56;;;;;;;;;9.75;8.50;;;;;24.23;64.32;100748.94;4980603;28;45447;-66
2021/06/17 05:35:21;;;;;;;;;10.25;8.50;;;;;24.26;64.06;100760.31;4981265;28;45520;-66
2021/06/17 05:37:46;;;;;;;;;6.00;6.00;;;;;24.31;63.96;100761.72;4980939;28;46445;-67
2021/06/17 05:40:12;;;;;;;;;10.00;7.00;;;;;24.33;63.89;100762.41;4980639;28;45254;-66
2021/06/17 05:42:37;;;;;;;;;10.00;8.25;;;;;24.36;64.09;100764.81;4976146;28;45317;-67
2021/06/17 05:45:03;;;;;;;;;10.75;8.75;;;;;24.37;63.83;100766.53;4979395;28;45371;-67
2021/06/17 05:47:29;;;;;;;;;7.75;7.75;;;;;24.35;63.25;100771.16;4974680;28;45491;-67
2021/06/17 05:49:54;;;;;;;;;9.25;6.50;;;;;24.31;63.49;100767.09;4974922;28;45448;-69
2021/06/17 05:52:19;;;;;;;;;7.75;6.00;;;;;24.32;63.78;100768.78;4970499;28;45310;-68
2021/06/17 05:54:45;;;;;;;;;8.00;7.25;;;;;24.27;63.93;100778.09;4980696;28;45279;-68
2021/06/17 05:57:10;;;;;;;;;7.00;5.75;;;;;24.30;63.65;100774.28;4979969;28;46428;-68
2021/06/17 05:59:36;;;;;;;;;12.75;8.00;;;;;24.31;64.18;100785.88;4980660;28;45243;-67
2021/06/17 06:02:02;;;;;;;;;8.50;7.75;;;;;24.33;63.67;100789.28;4980484;28;45250;-67
2021/06/17 06:04:27;;;;;;;;;7.25;6.25;;;;;24.36;64.13;100797.06;4980734;28;45372;-67
2021/06/17 06:06:55;;;;;;;;;7.75;7.25;;;;;24.42;63.71;100803.72;4980021;28;46601;-66
2021/06/17 06:09:20;;;;;;;;;8.00;7.75;;;;;24.42;63.24;100812.59;4977667;28;45885;-67
2021/06/17 06:11:46;;;;;;;;;8.50;8.25;;;;;24.43;64.22;100824.19;4979549;28;45404;-67
2021/06/17 06:14:11;;;;;;;;;8.00;7.25;;;;;24.43;64.06;100830.41;4979438;28;45466;-67
2021/06/17 06:16:36;;;;;;;;;6.50;6.50;;;;;24.43;63.47;100838.47;4980390;28;46459;-67
2021/06/17 06:19:05;;;;;;;;;7.00;7.00;;;;;24.47;63.37;100847.94;4978136;28;45250;-67
2021/06/17 06:21:31;;;;;;;;;7.75;6.50;;;;;24.48;63.39;100832.69;4973748;28;45532;-67
2021/06/17 06:23:56;;;;;;;;;10.25;8.00;;;;;24.50;63.77;100836.91;4969322;28;45131;-66
2021/06/17 06:26:21;;;;;;;;;7.00;6.00;;;;;24.50;63.52;100852.19;4974520;28;48243;-68
2021/06/17 06:28:47;;;;;;;;;6.75;6.50;;;;;24.50;63.61;100868.31;4980350;28;45182;-67
2021/06/17 06:31:13;;;;;;;;;10.50;8.75;;;;;24.51;62.95;100872.69;4978522;28;45279;-67
2021/06/17 06:33:38;;;;;;;;;11.50;9.00;;;;;24.53;64.59;100862.66;4980209;28;45277;-67
2021/06/17 06:36:04;;;;;;;;;9.25;9.25;;;;;24.47;63.47;100858.69;4973664;28;45622;-67
2021/06/17 06:38:29;;;;;;;;;8.50;7.25;;;;;24.47;63.39;100857.88;4977740;28;45297;-67
2021/06/17 06:40:55;;;;;;;;;7.50;7.00;;;;;24.47;63.27;100869.44;4965206;28;45215;-67
2021/06/17 06:43:21;;;;;;;;;7.00;6.25;;;;;24.42;62.88;100869.00;4972362;28;45898;-67
2021/06/17 06:45:46;;;;;;;;;8.25;5.50;;;;;24.47;63.43;100872.13;4975776;28;45350;-67
2021/06/17 06:48:12;;;;;;;;;7.25;7.00;;;;;24.54;63.29;100885.00;4982932;28;45414;-67
2021/06/17 06:50:39;;;;;;;;;6.75;6.75;;;;;24.46;62.85;100889.25;4979174;28;45345;-67
2021/06/17 06:53:04;;;;;;;;;7.00;6.50;;;;;24.40;63.07;100889.78;4979659;28;45540;-67
2021/06/17 06:55:30;;;;;;;;;7.25;6.50;;;;;24.35;63.56;100886.66;4968837;28;45530;-67
2021/06/17 06:57:55;;;;;;;;;6.75;6.50;;;;;24.34;63.24;100884.97;4989646;28;45309;-66
2021/06/17 07:00:21;;;;;;;;;6.50;5.75;;;;;24.35;63.04;100898.25;4980141;28;45380;-67
2021/06/17 07:02:46;;;;;;;;;8.50;7.75;;;;;24.35;63.26;100908.13;4982220;28;46695;-67
2021/06/17 07:05:12;;;;;;;;;6.00;6.00;;;;;24.38;63.14;100907.88;4973956;28;46175;-67
2021/06/17 07:07:37;;;;;;;;;7.00;7.00;;;;;24.35;62.95;100900.09;4964792;28;45223;-66
2021/06/17 07:10:04;;;;;;;;;4.75;4.00;;;;;24.35;62.78;100908.13;4977685;28;45467;-67
2021/06/17 07:12:30;;;;;;;;;6.50;6.50;;;;;24.30;62.75;100900.50;4982706;28;45451;-67
2021/06/17 07:14:57;;;;;;;;;6.50;6.00;;;;;24.31;62.77;100907.59;4981797;28;46144;-67
2021/06/17 07:17:23;;;;;;;;;5.50;5.25;;;;;24.26;63.12;100902.63;4973455;28;45517;-67
2021/06/17 07:19:48;;;;;;;;;6.00;5.50;;;;;24.33;62.81;100910.13;4971762;28;45232;-67
2021/06/17 07:22:13;;;;;;;;;4.75;3.50;;;;;24.34;63.02;100917.19;4984595;28;45501;-67
2021/06/17 07:24:39;;;;;;;;;7.75;6.75;;;;;24.32;63.40;100914.66;4968803;28;46278;-67
2021/06/17 07:27:05;;;;;;;;;7.50;6.00;;;;;24.36;63.08;100920.59;4980427;28;45435;-67
2021/06/17 07:29:30;;;;;;;;;6.25;6.00;;;;;24.42;63.12;100914.66;4973474;28;45529;-68
2021/06/17 07:31:56;;;;;;;;;7.00;6.75;;;;;24.37;62.39;100927.69;4979505;28;45424;-68
2021/06/17 07:34:22;;;;;;;;;6.50;6.50;;;;;24.35;62.43;100930.47;4966342;28;46131;-67
2021/06/17 07:36:50;;;;;;;;;6.00;6.00;;;;;24.38;62.32;100942.78;4976858;28;45448;-67
2021/06/17 07:39:16;;;;;;;;;7.00;6.75;;;;;24.33;62.43;100945.03;4976900;28;45522;-67
2021/06/17 07:41:41;;;;;;;;;5.50;5.50;;;;;24.32;62.62;100946.03;4981903;28;45709;-67
2021/06/17 07:44:07;;;;;;;;;4.75;4.00;;;;;24.34;62.38;100939.53;4972463;28;45868;-67
2021/06/17 07:46:32;;;;;;;;;4.25;3.00;;;;;24.37;62.05;100933.06;4975767;28;45316;-67
2021/06/17 07:48:58;;;;;;;;;4.75;4.75;;;;;24.38;61.94;100945.47;4979776;28;45310;-67
2021/06/17 07:51:28;;;;;;;;;6.00;6.00;;;;;24.37;61.70;100931.19;4980509;28;45357;-67
2021/06/17 07:53:59;;;;;;;;;6.00;6.00;;;;;24.34;61.90;100944.06;4973166;28;45485;-67
2021/06/17 07:56:24;;;;;;;;;6.25;6.25;;;;;24.31;61.85;100944.31;4975542;28;45518;-67
2021/06/17 07:58:49;;;;;;;;;5.75;4.50;;;;;24.27;61.72;100933.84;4970955;28;45333;-67
2021/06/17 08:01:15;;;;;;;;;5.25;5.25;;;;;24.19;61.57;100936.34;4978226;28;45481;-67
2021/06/17 08:03:40;;;;;;;;;5.00;5.00;;;;;24.15;61.46;100932.25;4972739;28;45374;-67
2021/06/17 08:06:05;;;;;;;;;10.25;5.25;;;;;24.15;61.41;100932.25;4973899;28;45221;-67
2021/06/17 08:08:31;;;;;;;;;4.25;3.75;;;;;24.18;61.02;100931.94;4981578;28;45166;-67
2021/06/17 08:10:56;;;;;;;;;3.25;3.25;;;;;24.17;61.34;100931.09;4974732;28;45402;-67
2021/06/17 08:13:22;;;;;;;;;3.75;3.00;;;;;24.22;61.48;100936.09;4980961;28;46459;-71
2021/06/17 08:15:48;;;;;;;;;3.00;3.00;;;;;24.33;61.69;100935.16;4982470;28;45323;-70
2021/06/17 08:18:14;;;;;;;;;5.25;5.25;;;;;24.42;61.27;100933.47;4982280;28;45170;-72
2021/06/17 08:20:39;;;;;;;;;3.50;3.00;;;;;24.51;61.15;100934.47;4980913;28;45396;-71
2021/06/17 13:09:30;;;;;;;;;5.00;5.00;;;;;26.46;52.34;100912.06;4966589;28;45806;-65
2021/06/17 13:12:12;;;;;;;;;5.00;5.00;;;;;26.48;52.71;100917.28;4983337;28;45721;-65
2021/06/17 13:14:58;;;;;;;;;4.25;4.25;;;;;26.45;52.88;100923.81;4981729;28;45319;-66
2021/06/17 13:17:24;;;;;;;;;3.25;3.25;;;;;26.50;52.04;100926.91;4986206;28;45466;-66
2021/06/17 13:19:51;;;;;;;;;4.25;4.25;;;;;26.41;52.58;100930.47;4981398;28;45239;-65
2021/06/17 13:22:19;;;;;;;;;5.75;5.00;;;;;26.42;52.19;100929.50;4981261;28;45506;-65
2021/06/17 13:24:45;;;;;;;;;4.00;4.00;;;;;26.27;51.98;100927.28;4983664;28;45410;-66
2021/06/17 13:27:22;;;;;;;;;5.75;5.00;;;;;26.22;53.05;100923.38;4980578;28;45313;-65
2021/06/17 13:30:01;;;;;;;;;5.25;4.00;;;;;26.33;52.75;100920.47;4981137;28;46655;-65
2021/06/17 13:32:28;;;;;;;;;6.00;5.00;;;;;26.34;52.04;100924.00;4981200;28;45285;-66
2021/06/17 13:34:53;;;;;;;;;4.00;4.00;;;;;26.24;52.28;100934.84;4981169;28;45521;-65
2021/06/17 13:37:19;;;;;;;;;4.25;4.25;;;;;26.24;51.81;100924.91;4980568;28;45494;-66
2021/06/17 13:39:46;;;;;;;;;7.00;7.00;;;;;26.27;52.00;100921.91;4980815;28;46419;-65
2021/06/17 13:42:13;;;;;;;;;3.75;3.75;;;;;26.27;52.33;100913.81;4988383;28;45370;-66
2021/06/17 13:44:38;;;;;;;;;5.00;5.00;;;;;26.27;52.17;100919.19;4980878;28;45587;-66
2021/06/17 13:47:04;;;;;;;;;5.50;4.50;;;;;26.22;52.32;100926.06;4980936;28;45261;-66
2021/06/17 13:49:29;;;;;;;;;6.00;5.00;;;;;26.26;51.63;100928.31;4980517;28;45220;-65
2021/06/17 13:51:56;;;;;;;;;5.50;4.50;;;;;26.32;51.94;100928.69;4979737;28;45299;-66
2021/06/17 13:54:22;;;;;;;;;5.00;4.50;;;;;26.28;51.59;100929.00;4980181;28;45242;-66
2021/06/17 13:56:49;;;;;;;;;5.25;5.25;;;;;26.28;52.23;100922.75;4979829;28;45565;-66
2021/06/17 13:59:15;;;;;;;;;6.25;5.00;;;;;26.25;52.09;100920.38;4980457;28;45524;-66
2021/06/17 14:01:41;;;;;;;;;5.50;5.50;;;;;26.14;51.74;100924.13;4980720;28;45247;-66
2021/06/17 14:04:06;;;;;;;;;5.25;5.25;;;;;26.15;52.12;100929.34;4980868;28;45292;-65
2021/06/17 14:06:32;;;;;;;;;3.75;3.75;;;;;26.13;52.44;100923.25;4979955;28;45447;-66
2021/06/17 14:08:57;;;;;;;;;4.50;4.25;;;;;26.12;52.45;100920.72;4979622;28;46503;-65
2021/06/17 14:11:23;;;;;;;;;5.00;5.00;;;;;26.11;51.71;100922.56;4979560;28;45377;-66
2021/06/17 14:13:48;;;;;;;;;6.25;5.25;;;;;26.15;52.02;100923.13;4979827;28;45300;-66
2021/06/17 14:16:13;;;;;;;;;6.75;4.50;;;;;26.20;52.29;100918.09;4987501;28;45390;-66
2021/06/17 14:18:39;;;;;;;;;5.50;5.00;;;;;26.24;53.57;100927.59;4980108;28;45265;-66
2021/06/17 14:21:04;;;;;;;;;5.75;4.25;;;;;26.31;52.70;100919.75;4979835;28;45244;-65
2021/06/17 14:23:30;;;;;;;;;5.00;3.25;;;;;26.32;52.22;100926.88;4980346;28;45456;-66
2021/06/17 14:25:55;;;;;;;;;3.00;3.00;;;;;26.36;51.67;100933.63;4979741;28;45289;-66
2021/06/17 14:28:20;;;;;;;;;5.00;3.75;;;;;26.39;52.61;100932.47;4979844;28;46450;-66
2021/06/17 14:30:46;;;;;;;;;4.25;4.00;;;;;26.37;51.95;100934.50;4979219;28;45213;-66
2021/06/17 14:33:11;;;;;;;;;4.75;4.75;;;;;26.36;52.30;100938.16;4980361;28;45229;-66
2021/06/17 14:35:38;;;;;;;;;5.00;4.50;;;;;26.37;52.03;100939.88;4972535;28;45502;-66
2021/06/17 14:38:06;;;;;;;;;4.00;4.00;;;;;26.42;52.21;100948.34;4972318;28;46506;-66
2021/06/17 14:40:32;;;;;;;;;6.25;5.00;;;;;26.47;51.98;100948.75;4976634;28;45824;-66
2021/06/17 14:42:57;;;;;;;;;6.50;5.00;;;;;26.50;52.09;100951.16;4978503;28;45494;-66
2021/06/17 14:45:22;;;;;;;;;3.50;3.50;;;;;26.53;51.22;100950.00;4978026;28;45363;-66
2021/06/17 14:47:48;;;;;;;;;5.00;5.00;;;;;26.51;51.48;100943.94;4978924;28;46181;-66
2021/06/17 14:50:14;;;;;;;;;4.25;3.75;;;;;26.49;52.10;100943.25;4978119;28;45765;-66
2021/06/17 14:52:39;;;;;;;;;6.50;5.00;;;;;26.43;51.51;100944.69;4992324;28;45763;-66
2021/06/17 14:55:05;;;;;;;;;5.50;4.75;;;;;26.36;51.88;100938.16;4992037;28;46193;-66
2021/06/17 14:57:31;;;;;;;;;6.50;5.50;;;;;26.35;52.07;100936.50;4978220;28;45793;-65
2021/06/17 14:59:56;;;;;;;;;6.00;4.00;;;;;26.29;51.57;100941.47;4978731;28;45308;-66
2021/06/17 15:02:22;;;;;;;;;6.00;5.00;;;;;26.30;51.94;100937.75;4979348;28;45294;-66
2021/06/17 15:04:47;;;;;;;;;6.25;6.00;;;;;26.39;52.67;100949.50;4978110;28;45317;-66
2021/06/17 15:07:14;;;;;;;;;4.25;4.25;;;;;26.49;52.04;100951.31;4978162;28;46503;-66
2021/06/17 15:09:40;;;;;;;;;5.00;5.00;;;;;26.60;52.49;100947.53;4991781;28;45650;-66
2021/06/17 15:12:06;;;;;;;;;6.25;4.00;;;;;26.71;52.09;100947.34;4987751;28;45446;-66
2021/06/17 15:14:31;;;;;;;;;5.00;5.00;;;;;26.73;51.28;100949.88;4977868;28;45540;-66
2021/06/17 15:16:57;;;;;;;;;4.00;4.00;;;;;26.62;52.26;100948.25;4981147;28;46127;-66
2021/06/17 15:19:22;;;;;;;;;4.00;4.00;;;;;26.55;52.00;100952.53;4976880;28;45451;-66
2021/06/17 15:21:48;;;;;;;;;6.50;6.25;;;;;26.47;51.59;100956.03;4984765;28;45410;-66
2021/06/17 15:24:17;;;;;;;;;5.50;5.00;;;;;26.41;52.63;100952.91;4984981;28;45421;-66
2021/06/17 15:26:43;;;;;;;;;6.00;4.75;;;;;26.41;51.65;100946.66;4980808;28;46272;-66
2021/06/17 15:29:08;;;;;;;;;7.00;5.75;;;;;26.39;52.52;100941.44;4981267;28;45391;-66
2021/06/17 15:31:34;;;;;;;;;3.25;3.25;;;;;26.41;53.72;100949.34;4982045;28;45293;-66
2021/06/17 15:33:59;;;;;;;;;5.00;5.00;;;;;26.49;54.33;100943.25;4981004;28;45657;-66
2021/06/17 15:36:24;;;;;;;;;4.75;4.75;;;;;26.57;52.38;100943.31;4981696;28;45452;-66
2021/06/17 15:38:50;;;;;;;;;6.00;5.00;;;;;26.54;51.50;100937.38;4971023;28;45676;-66
2021/06/17 15:41:15;;;;;;;;;5.75;5.75;;;;;26.57;52.23;100950.56;4997302;28;45376;-66
2021/06/17 15:43:41;;;;;;;;;6.50;5.50;;;;;26.50;51.46;100951.16;4999688;28;46278;-66
2021/06/17 15:46:07;;;;;;;;;4.00;3.50;;;;;26.47;53.49;100956.03;4980749;28;46465;-66
2021/06/17 15:48:32;;;;;;;;;5.25;5.00;;;;;26.52;52.66;100953.72;4981163;28;45486;-66
2021/06/17 15:50:58;;;;;;;;;5.00;5.00;;;;;26.61;52.42;100957.34;4981317;28;45482;-66
2021/06/17 15:53:25;;;;;;;;;6.00;4.75;;;;;26.73;52.39;100955.28;4980156;28;45321;-66
2021/06/17 15:55:50;;;;;;;;;5.75;5.00;;;;;26.78;52.37;100957.50;4981085;28;46575;-66
2021/06/17 15:58:16;;;;;;;;;6.75;5.00;;;;;26.77;53.27;100963.91;4982743;28;45210;-66
2021/06/17 16:00:42;;;;;;;;;3.75;3.75;;;;;26.78;53.40;100954.81;4982336;28;45456;-66
2021/06/17 16:03:09;;;;;;;;;3.50;3.25;;;;;26.85;52.55;100951.34;4982371;28;45439;-66
2021/06/17 16:05:36;;;;;;;;;5.75;4.50;;;;;26.91;51.52;100963.38;4996702;28;47211;-66
2021/06/17 16:08:01;;;;;;;;;4.75;4.75;;;;;26.94;51.85;100957.66;4980870;28;45654;-66
2021/06/17 16:10:27;;;;;;;;;8.00;6.00;;;;;26.83;51.73;100964.13;4984779;28;45492;-66
2021/06/17 16:12:53;;;;;;;;;5.00;5.00;;;;;26.71;51.17;100963.53;4981704;28;45410;-66
2021/06/17 16:15:19;;;;;;;;;5.25;5.25;;;;;26.67;51.90;100967.50;4983049;28;46770;-66
2021/06/17 16:17:48;;;;;;;;;3.50;3.50;;;;;26.69;52.23;100962.84;4980599;28;45162;-66
2021/06/17 16:20:19;;;;;;;;;5.00;5.00;;;;;26.66;52.01;100971.22;4981980;28;45388;-66
2021/06/17 16:22:44;;;;;;;;;4.00;4.00;;;;;26.68;52.21;100973.75;4981779;28;45470;-66
2021/06/17 16:25:10;;;;;;;;;4.25;4.25;;;;;26.72;52.78;100967.03;4997163;28;48045;-66
2021/06/17 16:27:36;;;;;;;;;5.50;4.50;;;;;26.77;52.08;100963.91;4981858;28;45202;-66
2021/06/17 16:30:03;;;;;;;;;5.50;5.00;;;;;26.70;52.52;100961.81;4981527;28;45336;-66
2021/06/17 16:32:28;;;;;;;;;5.25;5.00;;;;;26.63;52.11;100952.63;4981049;28;45387;-66
2021/06/17 16:34:54;;;;;;;;;5.75;5.00;;;;;26.56;52.01;100952.41;4977809;28;45528;-66
2021/06/17 16:37:19;;;;;;;;;5.00;5.00;;;;;26.38;52.71;100950.50;4991006;28;45310;-66
2021/06/17 16:39:44;;;;;;;;;2.25;2.25;;;;;26.27;52.38;100954.22;4983185;28;45305;-66
2021/06/17 16:42:10;;;;;;;;;5.50;5.00;;;;;26.23;52.68;100950.13;4984127;28;45284;-66
2021/06/17 16:44:35;;;;;;;;;6.00;5.50;;;;;26.20;53.21;100955.81;4981704;28;46120;-66
2021/06/17 16:47:01;;;;;;;;;5.75;4.25;;;;;26.18;53.42;100955.97;4981540;28;45348;-66
2021/06/17 16:49:26;;;;;;;;;9.00;8.00;;;;;26.08;53.10;100944.41;4982067;28;45327;-66
2021/06/17 16:51:52;;;;;;;;;5.75;5.25;;;;;26.04;54.85;100946.56;4981629;28;45332;-66
2021/06/17 16:54:26;;;;;;;;;7.50;5.75;;;;;26.07;53.72;100951.66;4990509;28;45578;-66
2021/06/17 16:56:54;;;;;;;;;5.25;4.00;;;;;26.14;55.07;100937.56;4996164;28;45368;-66
2021/06/17 16:59:20;;;;;;;;;9.25;6.50;;;;;26.23;54.46;100938.50;4981967;28;45237;-66
2021/06/17 17:01:46;;;;;;;;;6.00;6.00;;;;;26.33;55.26;100939.31;4980949;28;45274;-66
2021/06/17 17:04:12;;;;;;;;;8.25;6.25;;;;;26.41;53.61;100928.66;4981300;28;45483;-66
2021/06/17 17:06:40;;;;;;;;;6.00;6.00;;;;;26.44;54.48;100937.44;4980972;28;45470;-66
2021/06/17 17:09:06;;;;;;;;;7.25;6.75;;;;;26.48;54.45;100931.59;4981395;28;45502;-66
2021/06/17 17:11:31;;;;;;;;;7.25;5.75;;;;;26.55;54.52;100942.63;4979334;28;46065;-66
2021/06/17 17:13:56;;;;;;;;;7.25;7.00;;;;;26.58;53.50;100953.09;4990441;28;46248;-66
2021/06/17 17:16:22;;;;;;;;;6.00;6.00;;;;;26.58;53.57;100946.84;4987687;28;45355;-66
2021/06/17 17:18:47;;;;;;;;;8.00;7.75;;;;;26.60;53.84;100948.41;4981600;28;45441;-66
2021/06/17 17:21:12;;;;;;;;;7.00;6.75;;;;;26.61;54.23;100957.34;4999691;28;46871;-66
2021/06/17 17:23:38;;;;;;;;;6.25;5.25;;;;;26.59;53.99;100946.72;4980199;28;45451;-66
2021/06/17 17:26:03;;;;;;;;;6.75;6.25;;;;;26.61;53.97;100952.81;4981311;28;45317;-66
2021/06/17 17:28:29;;;;;;;;;6.00;6.00;;;;;26.62;53.80;100961.72;4981622;28;45265;-66
2021/06/17 17:30:55;;;;;;;;;6.00;6.00;;;;;26.56;53.37;100954.25;4980926;28;45445;-66
2021/06/17 17:33:20;;;;;;;;;5.25;5.25;;;;;26.49;53.49;100954.88;4980866;28;45592;-66
2021/06/17 17:35:46;;;;;;;;;7.00;5.75;;;;;26.46;53.76;100957.84;4980908;28;45264;-66
2021/06/17 17:38:11;;;;;;;;;5.75;5.75;;;;;26.43;53.82;100960.84;4980987;28;45297;-66
2021/06/17 17:40:36;;;;;;;;;5.00;5.00;;;;;26.45;54.65;100971.47;4981131;28;45300;-66
2021/06/17 17:43:02;;;;;;;;;7.75;7.00;;;;;26.45;53.98;100966.06;4980778;28;46043;-66
2021/06/17 17:45:28;;;;;;;;;7.00;6.25;;;;;26.46;54.52;100965.94;4980001;28;45253;-66
2021/06/17 17:47:53;;;;;;;;;7.25;5.00;;;;;26.46;55.16;100962.38;4981197;28;45231;-66
2021/06/17 17:50:19;;;;;;;;;6.25;6.25;;;;;26.48;55.61;100974.72;4976687;28;45471;-66
2021/06/17 17:52:44;;;;;;;;;5.00;5.00;;;;;26.47;54.06;100962.22;4971688;28;45434;-66
2021/06/17 17:55:15;;;;;;;;;7.00;7.00;;;;;26.49;54.15;100970.19;4977581;28;45254;-66
2021/06/17 17:57:41;;;;;;;;;8.25;7.00;;;;;26.44;54.75;100978.72;4979308;28;45432;-66
2021/06/17 18:00:13;;;;;;;;;7.00;5.25;;;;;26.44;54.68;100978.72;4978609;28;45296;-66
2021/06/17 18:02:39;;;;;;;;;6.25;5.75;;;;;26.44;55.71;100981.41;4979535;28;46047;-66
2021/06/17 18:05:05;;;;;;;;;6.50;5.50;;;;;26.43;54.85;100998.56;4978615;28;45640;-65
2021/06/17 18:07:31;;;;;;;;;4.75;4.75;;;;;26.44;55.55;101002.97;4979202;28;45325;-66
2021/06/17 18:09:58;;;;;;;;;5.50;5.50;;;;;26.46;55.90;101006.34;4979138;28;45266;-66
2021/06/17 18:12:24;;;;;;;;;5.00;5.00;;;;;26.41;54.43;101020.25;4978680;28;46159;-66
2021/06/17 18:14:51;;;;;;;;;6.25;5.75;;;;;26.37;54.44;101021.53;4978773;28;45577;-66
2021/06/17 18:17:25;;;;;;;;;5.25;5.25;;;;;26.35;55.35;101031.59;4984858;28;45340;-66
2021/06/17 18:19:51;;;;;;;;;8.50;7.50;;;;;26.32;55.07;101039.16;4978629;28;45462;-66
2021/06/17 18:22:18;;;;;;;;;6.00;6.00;;;;;26.28;55.78;101055.59;4978592;28;46363;-66
2021/06/17 18:24:45;;;;;;;;;7.00;6.00;;;;;26.25;55.57;101061.28;4979026;28;45344;-66
2021/06/17 18:27:19;;;;;;;;;5.25;5.25;;;;;26.24;55.73;101070.38;4979105;28;45306;-66
2021/06/17 18:29:45;;;;;;;;;5.25;5.25;;;;;26.15;55.73;101065.88;4979359;28;45574;-66
2021/06/17 18:32:11;;;;;;;;;5.75;4.50;;;;;26.10;55.85;101073.53;4978814;28;45649;-65
2021/06/17 18:34:37;;;;;;;;;10.25;6.25;;;;;26.03;56.23;101065.16;4977689;28;45653;-66
2021/06/17 18:37:03;;;;;;;;;5.75;4.50;;;;;25.94;57.37;101069.59;4993689;28;45325;-65
2021/06/17 18:39:29;;;;;;;;;5.75;5.00;;;;;25.87;58.70;101071.16;4994321;28;46359;-65
2021/06/17 18:41:54;;;;;;;;;5.50;5.50;;;;;25.75;57.29;101070.47;4978358;28;45342;-66
2021/06/17 18:44:19;;;;;;;;;7.50;6.00;;;;;25.64;59.12;101069.59;4978378;28;45502;-66
2021/06/17 18:46:45;;;;;;;;;7.00;6.25;;;;;25.53;57.54;101075.13;4978658;28;45520;-66
2021/06/17 18:49:10;;;;;;;;;7.00;5.00;;;;;25.47;58.58;101085.47;4978417;28;45441;-66
2021/06/17 18:51:36;;;;;;;;;6.25;5.75;;;;;25.39;58.37;101086.16;4978274;28;46426;-66
2021/06/17 18:54:03;;;;;;;;;7.50;6.25;;;;;25.33;60.17;101088.56;4978613;28;45427;-66
2021/06/17 18:56:29;;;;;;;;;7.25;6.50;;;;;25.28;59.34;101097.06;4980922;28;45341;-66
2021/06/17 18:58:54;;;;;;;;;5.75;5.00;;;;;25.25;60.68;101095.50;4983465;28;45654;-66
2021/06/17 19:01:23;;;;;;;;;8.00;8.00;;;;;25.22;59.39;101102.97;4983277;28;46477;-66
2021/06/17 19:03:51;;;;;;;;;2.25;1.50;;;;;25.22;60.17;101108.34;4983722;28;45245;-67
2021/06/17 19:06:17;;;;;;;;;10.75;9.75;;;;;25.19;60.97;101112.19;4997912;28;45375;-67
2021/06/17 19:08:43;;;;;;;;;6.00;6.00;;;;;25.12;61.20;101113.72;4982367;28;45392;-67
2021/06/17 19:11:11;;;;;;;;;6.00;4.75;;;;;24.97;61.50;101110.53;4983118;28;45451;-66
2021/06/17 19:13:36;;;;;;;;;5.25;4.00;;;;;24.67;62.00;101116.66;4983553;28;45520;-66
2021/06/17 19:16:03;;;;;;;;;5.00;5.00;;;;;24.51;62.64;101101.03;4989391;28;45238;-66
2021/06/17 19:18:28;;;;;;;;;5.00;5.00;;;;;24.22;62.75;101075.72;4981446;28;45408;-66
2021/06/17 19:20:53;;;;;;;;;5.75;5.00;;;;;23.96;64.63;101065.38;4980630;28;46432;-66
2021/06/17 19:23:22;;;;;;;;;7.00;6.00;;;;;23.77;63.79;101040.13;4982743;28;45543;-65
2021/06/17 19:25:51;;;;;;;;;7.75;6.00;;;;;23.50;66.03;101049.53;4981421;28;46031;-65
2021/06/17 19:28:18;;;;;;;;;6.00;6.00;;;;;23.27;66.03;101052.25;4980013;28;45280;-65
2021/06/17 19:30:44;;;;;;;;;6.75;5.25;;;;;23.12;65.97;101049.00;4981366;28;46121;-65
2021/06/17 19:33:11;;;;;;;;;5.00;5.00;;;;;22.96;66.37;101061.00;4977885;28;45730;-65
2021/06/17 19:35:37;;;;;;;;;4.75;4.75;;;;;22.84;67.89;101062.81;4979551;28;45303;-65
2021/06/17 19:38:04;;;;;;;;;8.25;6.50;;;;;22.75;65.79;101061.75;4980805;28;45475;-66
2021/06/17 19:40:30;;;;;;;;;6.25;5.25;;;;;22.70;65.75;101059.44;4983004;28;45322;-65
2021/06/17 19:42:55;;;;;;;;;8.25;7.50;;;;;22.68;67.14;101049.78;4981770;28;45224;-65
2021/06/17 19:45:21;;;;;;;;;7.00;7.00;;;;;22.65;66.62;101048.19;4981820;28;45701;-64
2021/06/17 19:47:48;;;;;;;;;5.00;5.00;;;;;22.67;66.58;101059.63;4982450;28;45440;-65
2021/06/17 19:50:14;;;;;;;;;8.50;6.00;;;;;22.65;66.39;101056.22;4979372;28;45490;-65
2021/06/17 19:52:40;;;;;;;;;6.75;5.00;;;;;22.68;66.63;101066.72;4981887;28;45400;-65
2021/06/17 19:57:42;;;;;;;;;4.00;4.00;;;;;22.65;66.53;101050.88;4982302;28;45251;-65
2021/06/17 20:00:08;;;;;;;;;4.00;4.00;;;;;22.63;65.91;101057.34;4982600;28;45687;-64
2021/06/17 20:02:34;;;;;;;;;7.25;5.25;;;;;22.62;66.10;101061.00;4981503;28;45472;-64
2021/06/17 20:05:03;;;;;;;;;7.25;6.50;;;;;22.61;65.97;101057.47;4982673;28;45229;-64
2021/06/17 20:07:29;;;;;;;;;4.00;4.00;;;;;22.63;66.67;101066.22;4980342;28;45499;-65
2021/06/17 20:09:56;;;;;;;;;5.25;5.25;;;;;22.62;66.01;101064.50;4981770;28;46215;-64
2021/06/17 20:12:22;;;;;;;;;6.50;4.75;;;;;22.62;66.13;101066.34;4981809;28;45394;-65
2021/06/17 20:14:48;;;;;;;;;6.25;6.00;;;;;22.67;66.21;101074.84;4982181;28;45359;-65
2021/06/17 20:17:14;;;;;;;;;5.25;5.25;;;;;22.72;66.86;101080.72;5002353;28;45395;-65
2021/06/17 20:19:40;;;;;;;;;6.00;6.00;;;;;22.74;66.23;101091.34;4982258;28;45467;-65
2021/06/17 20:22:08;;;;;;;;;4.75;4.75;;;;;22.74;66.26;101102.06;4980220;28;45582;-65
2021/06/17 20:24:34;;;;;;;;;9.00;6.25;;;;;22.73;66.17;101106.56;4977414;28;45533;-64